Huvudsida
METAR-TAF:

METAR-TAF

Flygplatser :

Paros flygplats

Thimphu, Indien

latitud: 27-24-32N, longitud: 89-25-14E, höjd: 2235 m

Aktuellt väderrapport

Denna rapport gjordes för 28 minuter sedan, klockan 06:00 UTC
Vind 17 kt från syd/sydost i byarna ända upp till 35 kt, varierande mellan sydost och syd/sydväst
Temperatur 24°C
Fuktighet 19%
Tryck 1015 hPa
Sikt 10 km eller mer
Få moln på en höjd av 6000 ft

METAR: VQPR 240600Z 16017G35KT 130V200 9999 FEW060 24/M01 Q1015

Tid: 12:28 (06:28 UTC)


TAF: saknas

Aktuella väderrapporter och prognoser från 4000 flygplatser (METAR- och TAF-rapporter).

De tillgängliga stationerna syns som gula och röda prickar på kartan.

För musen över prickarna för att se namnen på stationerna.

Klicka sedan för att få väderrapporter och prognoser.

För att ändra kartan: Klicka på de gröna knapparna med ett svart kors på för att zooma in; den gröna knappen med ett streck på för att zooma ut; eller på de gröna pilarna för angränsande kartor.


METAR-TAF: